sensor_id;sensor_type;location;lat;lon;timestamp;P1;durP1;ratioP1;P2;durP2;ratioP2
78985;SDS011;68384;55.750;48.746;2023-03-24T00:00:31;10.90;;;6.53;;
78985;SDS011;68384;55.750;48.746;2023-03-24T00:01:33;12.82;;;6.55;;
78985;SDS011;68384;55.750;48.746;2023-03-24T00:02:38;10.52;;;6.20;;
78985;SDS011;68384;55.750;48.746;2023-03-24T00:03:43;10.20;;;6.60;;
78985;SDS011;68384;55.750;48.746;2023-03-24T00:04:51;8.95;;;5.93;;
78985;SDS011;68384;55.750;48.746;2023-03-24T00:05:55;10.20;;;6.22;;
78985;SDS011;68384;55.750;48.746;2023-03-24T00:07:02;10.95;;;6.35;;
78985;SDS011;68384;55.750;48.746;2023-03-24T00:08:09;11.07;;;6.43;;
78985;SDS011;68384;55.750;48.746;2023-03-24T00:10:17;9.25;;;5.95;;
78985;SDS011;68384;55.750;48.746;2023-03-24T00:11:23;9.10;;;6.15;;
78985;SDS011;68384;55.750;48.746;2023-03-24T00:12:31;9.70;;;6.28;;
78985;SDS011;68384;55.750;48.746;2023-03-24T00:13:35;11.88;;;6.40;;
78985;SDS011;68384;55.750;48.746;2023-03-24T00:14:40;10.57;;;6.32;;
78985;SDS011;68384;55.750;48.746;2023-03-24T00:15:47;10.43;;;6.20;;
78985;SDS011;68384;55.750;48.746;2023-03-24T00:16:49;9.75;;;6.40;;
78985;SDS011;68384;55.750;48.746;2023-03-24T00:17:57;9.63;;;6.30;;
78985;SDS011;68384;55.750;48.746;2023-03-24T00:19:00;9.70;;;6.75;;
78985;SDS011;68384;55.750;48.746;2023-03-24T00:20:07;12.93;;;6.28;;
78985;SDS011;68384;55.750;48.746;2023-03-24T00:21:18;9.95;;;6.10;;
78985;SDS011;68384;55.750;48.746;2023-03-24T00:22:25;9.82;;;6.45;;
78985;SDS011;68384;55.750;48.746;2023-03-24T00:23:29;11.50;;;6.72;;
78985;SDS011;68384;55.750;48.746;2023-03-24T00:24:34;11.32;;;6.53;;
78985;SDS011;68384;55.750;48.746;2023-03-24T00:25:40;9.70;;;6.32;;
78985;SDS011;68384;55.750;48.746;2023-03-24T00:26:43;9.93;;;6.07;;
78985;SDS011;68384;55.750;48.746;2023-03-24T00:27:47;11.18;;;6.60;;
78985;SDS011;68384;55.750;48.746;2023-03-24T00:28:54;8.05;;;5.68;;
78985;SDS011;68384;55.750;48.746;2023-03-24T00:30:01;9.70;;;6.18;;
78985;SDS011;68384;55.750;48.746;2023-03-24T00:31:07;9.77;;;6.50;;
78985;SDS011;68384;55.750;48.746;2023-03-24T00:32:14;11.25;;;6.05;;
78985;SDS011;68384;55.750;48.746;2023-03-24T00:33:18;11.75;;;6.75;;
78985;SDS011;68384;55.750;48.746;2023-03-24T00:34:21;10.85;;;6.63;;
78985;SDS011;68384;55.750;48.746;2023-03-24T00:35:27;10.30;;;6.10;;
78985;SDS011;68384;55.750;48.746;2023-03-24T00:36:30;11.20;;;6.28;;
78985;SDS011;68384;55.750;48.746;2023-03-24T00:37:34;9.18;;;5.53;;
78985;SDS011;68384;55.750;48.746;2023-03-24T00:38:39;8.70;;;5.80;;
78985;SDS011;68384;55.750;48.746;2023-03-24T00:39:43;9.52;;;6.40;;
78985;SDS011;68384;55.750;48.746;2023-03-24T00:40:46;11.18;;;6.82;;
78985;SDS011;68384;55.750;48.746;2023-03-24T00:41:51;10.27;;;6.22;;
78985;SDS011;68384;55.750;48.746;2023-03-24T00:42:53;10.25;;;6.38;;
78985;SDS011;68384;55.750;48.746;2023-03-24T00:45:02;9.70;;;5.75;;
78985;SDS011;68384;55.750;48.746;2023-03-24T00:46:18;10.20;;;6.32;;
78985;SDS011;68384;55.750;48.746;2023-03-24T00:47:28;14.27;;;6.53;;
78985;SDS011;68384;55.750;48.746;2023-03-24T00:48:33;8.80;;;6.10;;
78985;SDS011;68384;55.750;48.746;2023-03-24T00:49:39;10.13;;;6.65;;
78985;SDS011;68384;55.750;48.746;2023-03-24T00:50:49;10.15;;;6.13;;
78985;SDS011;68384;55.750;48.746;2023-03-24T00:51:54;10.68;;;6.10;;
78985;SDS011;68384;55.750;48.746;2023-03-24T00:52:59;11.98;;;6.32;;
78985;SDS011;68384;55.750;48.746;2023-03-24T00:54:02;11.15;;;6.97;;
78985;SDS011;68384;55.750;48.746;2023-03-24T00:55:07;9.35;;;6.28;;
78985;SDS011;68384;55.750;48.746;2023-03-24T00:56:09;12.90;;;6.93;;
78985;SDS011;68384;55.750;48.746;2023-03-24T00:57:17;9.52;;;6.80;;
78985;SDS011;68384;55.750;48.746;2023-03-24T00:58:23;10.90;;;6.57;;
78985;SDS011;68384;55.750;48.746;2023-03-24T00:59:27;12.63;;;7.38;;
78985;SDS011;68384;55.750;48.746;2023-03-24T01:00:31;9.85;;;7.05;;
78985;SDS011;68384;55.750;48.746;2023-03-24T01:01:36;11.18;;;7.22;;
78985;SDS011;68384;55.750;48.746;2023-03-24T01:02:42;8.93;;;6.07;;
78985;SDS011;68384;55.750;48.746;2023-03-24T01:03:47;11.05;;;6.85;;
78985;SDS011;68384;55.750;48.746;2023-03-24T01:04:51;11.07;;;6.85;;
78985;SDS011;68384;55.750;48.746;2023-03-24T01:05:59;10.23;;;6.28;;
78985;SDS011;68384;55.750;48.746;2023-03-24T01:07:04;11.45;;;6.38;;
78985;SDS011;68384;55.750;48.746;2023-03-24T01:08:11;11.75;;;6.55;;
78985;SDS011;68384;55.750;48.746;2023-03-24T01:09:14;9.77;;;5.78;;
78985;SDS011;68384;55.750;48.746;2023-03-24T01:10:19;12.55;;;6.85;;
78985;SDS011;68384;55.750;48.746;2023-03-24T01:11:27;12.15;;;6.68;;
78985;SDS011;68384;55.750;48.746;2023-03-24T01:13:34;9.18;;;6.68;;
78985;SDS011;68384;55.750;48.746;2023-03-24T01:15:41;12.00;;;7.07;;
78985;SDS011;68384;55.750;48.746;2023-03-24T01:16:46;11.43;;;6.40;;
78985;SDS011;68384;55.750;48.746;2023-03-24T01:17:49;10.77;;;6.88;;
78985;SDS011;68384;55.750;48.746;2023-03-24T01:18:55;15.60;;;6.43;;
78985;SDS011;68384;55.750;48.746;2023-03-24T01:19:58;9.40;;;6.18;;
78985;SDS011;68384;55.750;48.746;2023-03-24T01:22:04;9.00;;;5.38;;
78985;SDS011;68384;55.750;48.746;2023-03-24T01:24:14;10.32;;;6.35;;
78985;SDS011;68384;55.750;48.746;2023-03-24T01:25:18;11.63;;;6.72;;
78985;SDS011;68384;55.750;48.746;2023-03-24T01:26:22;10.90;;;6.38;;
78985;SDS011;68384;55.750;48.746;2023-03-24T01:28:28;11.35;;;7.25;;
78985;SDS011;68384;55.750;48.746;2023-03-24T01:29:32;12.07;;;6.40;;
78985;SDS011;68384;55.750;48.746;2023-03-24T01:30:35;11.32;;;6.25;;
78985;SDS011;68384;55.750;48.746;2023-03-24T01:32:43;12.13;;;7.30;;
78985;SDS011;68384;55.750;48.746;2023-03-24T01:33:47;10.95;;;6.80;;
78985;SDS011;68384;55.750;48.746;2023-03-24T01:34:51;9.93;;;6.78;;
78985;SDS011;68384;55.750;48.746;2023-03-24T01:35:53;11.00;;;7.13;;
78985;SDS011;68384;55.750;48.746;2023-03-24T01:36:57;10.70;;;6.40;;
78985;SDS011;68384;55.750;48.746;2023-03-24T01:38:01;11.68;;;7.45;;
78985;SDS011;68384;55.750;48.746;2023-03-24T01:39:08;11.02;;;6.65;;
78985;SDS011;68384;55.750;48.746;2023-03-24T01:40:10;11.90;;;7.03;;
78985;SDS011;68384;55.750;48.746;2023-03-24T01:41:19;12.27;;;8.05;;
78985;SDS011;68384;55.750;48.746;2023-03-24T01:42:23;11.90;;;7.03;;
78985;SDS011;68384;55.750;48.746;2023-03-24T01:43:29;12.35;;;7.05;;
78985;SDS011;68384;55.750;48.746;2023-03-24T01:44:34;12.20;;;7.45;;
78985;SDS011;68384;55.750;48.746;2023-03-24T01:47:06;12.40;;;7.35;;
78985;SDS011;68384;55.750;48.746;2023-03-24T01:48:11;11.52;;;7.00;;
78985;SDS011;68384;55.750;48.746;2023-03-24T01:49:20;11.32;;;7.75;;
78985;SDS011;68384;55.750;48.746;2023-03-24T01:50:26;13.27;;;7.25;;
78985;SDS011;68384;55.750;48.746;2023-03-24T01:51:31;11.15;;;7.15;;
78985;SDS011;68384;55.750;48.746;2023-03-24T01:52:38;16.50;;;7.75;;
78985;SDS011;68384;55.750;48.746;2023-03-24T01:53:44;13.77;;;8.00;;
78985;SDS011;68384;55.750;48.746;2023-03-24T01:54:52;11.85;;;7.13;;
78985;SDS011;68384;55.750;48.746;2023-03-24T01:55:57;14.90;;;7.90;;
78985;SDS011;68384;55.750;48.746;2023-03-24T01:57:05;14.80;;;7.75;;
78985;SDS011;68384;55.750;48.746;2023-03-24T01:58:11;11.07;;;6.85;;
78985;SDS011;68384;55.750;48.746;2023-03-24T01:59:16;13.10;;;7.13;;
78985;SDS011;68384;55.750;48.746;2023-03-24T02:00:23;16.90;;;7.22;;
78985;SDS011;68384;55.750;48.746;2023-03-24T02:01:26;16.02;;;7.97;;
78985;SDS011;68384;55.750;48.746;2023-03-24T02:02:34;11.20;;;7.00;;
78985;SDS011;68384;55.750;48.746;2023-03-24T02:03:37;12.10;;;7.43;;
78985;SDS011;68384;55.750;48.746;2023-03-24T02:04:43;12.55;;;7.63;;
78985;SDS011;68384;55.750;48.746;2023-03-24T02:05:49;12.65;;;7.68;;
78985;SDS011;68384;55.750;48.746;2023-03-24T02:06:55;11.57;;;7.22;;
78985;SDS011;68384;55.750;48.746;2023-03-24T02:08:03;12.25;;;7.65;;
78985;SDS011;68384;55.750;48.746;2023-03-24T02:09:11;11.55;;;7.50;;
78985;SDS011;68384;55.750;48.746;2023-03-24T02:10:15;14.30;;;7.10;;
78985;SDS011;68384;55.750;48.746;2023-03-24T02:11:20;13.88;;;7.55;;
78985;SDS011;68384;55.750;48.746;2023-03-24T02:12:25;14.13;;;8.38;;
78985;SDS011;68384;55.750;48.746;2023-03-24T02:14:31;12.65;;;6.80;;
78985;SDS011;68384;55.750;48.746;2023-03-24T02:16:02;12.40;;;7.25;;
78985;SDS011;68384;55.750;48.746;2023-03-24T02:17:25;10.32;;;7.60;;
78985;SDS011;68384;55.750;48.746;2023-03-24T02:18:57;12.65;;;7.82;;
78985;SDS011;68384;55.750;48.746;2023-03-24T02:20:27;13.82;;;7.65;;
78985;SDS011;68384;55.750;48.746;2023-03-24T02:22:00;10.90;;;7.28;;
78985;SDS011;68384;55.750;48.746;2023-03-24T02:23:34;12.63;;;7.50;;
78985;SDS011;68384;55.750;48.746;2023-03-24T02:25:15;11.57;;;6.90;;
78985;SDS011;68384;55.750;48.746;2023-03-24T02:26:52;11.95;;;7.13;;
78985;SDS011;68384;55.750;48.746;2023-03-24T02:28:06;12.63;;;6.82;;
78985;SDS011;68384;55.750;48.746;2023-03-24T02:29:26;12.75;;;7.07;;
78985;SDS011;68384;55.750;48.746;2023-03-24T02:30:51;11.15;;;7.80;;
78985;SDS011;68384;55.750;48.746;2023-03-24T02:32:12;11.07;;;6.63;;
78985;SDS011;68384;55.750;48.746;2023-03-24T02:33:42;15.45;;;6.90;;
78985;SDS011;68384;55.750;48.746;2023-03-24T02:35:18;13.30;;;7.13;;
78985;SDS011;68384;55.750;48.746;2023-03-24T02:38:36;12.25;;;7.00;;
78985;SDS011;68384;55.750;48.746;2023-03-24T02:40:08;12.80;;;7.15;;
78985;SDS011;68384;55.750;48.746;2023-03-24T02:41:23;12.90;;;7.25;;
78985;SDS011;68384;55.750;48.746;2023-03-24T02:42:33;14.30;;;7.65;;
78985;SDS011;68384;55.750;48.746;2023-03-24T02:43:46;12.82;;;7.30;;
78985;SDS011;68384;55.750;48.746;2023-03-24T02:45:02;12.57;;;7.65;;
78985;SDS011;68384;55.750;48.746;2023-03-24T02:46:14;12.38;;;7.10;;
78985;SDS011;68384;55.750;48.746;2023-03-24T02:47:24;10.25;;;7.10;;
78985;SDS011;68384;55.750;48.746;2023-03-24T02:48:33;11.40;;;7.45;;
78985;SDS011;68384;55.750;48.746;2023-03-24T02:49:45;11.82;;;7.00;;
78985;SDS011;68384;55.750;48.746;2023-03-24T02:50:55;11.48;;;6.97;;
78985;SDS011;68384;55.750;48.746;2023-03-24T02:52:07;14.82;;;7.20;;
78985;SDS011;68384;55.750;48.746;2023-03-24T02:53:19;12.15;;;7.50;;
78985;SDS011;68384;55.750;48.746;2023-03-24T02:54:33;15.73;;;7.55;;
78985;SDS011;68384;55.750;48.746;2023-03-24T02:55:45;10.57;;;7.32;;
78985;SDS011;68384;55.750;48.746;2023-03-24T02:56:55;11.43;;;7.05;;
78985;SDS011;68384;55.750;48.746;2023-03-24T02:58:06;12.55;;;7.60;;
78985;SDS011;68384;55.750;48.746;2023-03-24T02:59:15;12.73;;;7.38;;
78985;SDS011;68384;55.750;48.746;2023-03-24T03:00:23;14.48;;;7.38;;
78985;SDS011;68384;55.750;48.746;2023-03-24T03:01:39;12.00;;;7.72;;
78985;SDS011;68384;55.750;48.746;2023-03-24T03:02:45;12.40;;;7.43;;
78985;SDS011;68384;55.750;48.746;2023-03-24T03:03:55;13.32;;;7.22;;
78985;SDS011;68384;55.750;48.746;2023-03-24T03:05:02;12.15;;;7.75;;
78985;SDS011;68384;55.750;48.746;2023-03-24T03:06:10;13.48;;;8.60;;
78985;SDS011;68384;55.750;48.746;2023-03-24T03:07:17;13.02;;;7.40;;
78985;SDS011;68384;55.750;48.746;2023-03-24T03:08:26;12.98;;;7.75;;
78985;SDS011;68384;55.750;48.746;2023-03-24T03:09:33;12.43;;;7.57;;
78985;SDS011;68384;55.750;48.746;2023-03-24T03:10:40;13.77;;;7.43;;
78985;SDS011;68384;55.750;48.746;2023-03-24T03:11:47;14.77;;;8.38;;
78985;SDS011;68384;55.750;48.746;2023-03-24T03:12:55;11.13;;;7.20;;
78985;SDS011;68384;55.750;48.746;2023-03-24T03:14:03;14.20;;;7.93;;
78985;SDS011;68384;55.750;48.746;2023-03-24T03:15:11;12.65;;;8.70;;
78985;SDS011;68384;55.750;48.746;2023-03-24T03:16:20;11.90;;;7.22;;
78985;SDS011;68384;55.750;48.746;2023-03-24T03:17:26;13.90;;;7.63;;
78985;SDS011;68384;55.750;48.746;2023-03-24T03:18:35;15.60;;;7.65;;
78985;SDS011;68384;55.750;48.746;2023-03-24T03:19:42;12.25;;;7.70;;
78985;SDS011;68384;55.750;48.746;2023-03-24T03:20:51;10.35;;;7.30;;
78985;SDS011;68384;55.750;48.746;2023-03-24T03:21:59;12.93;;;8.00;;
78985;SDS011;68384;55.750;48.746;2023-03-24T03:23:07;12.05;;;7.97;;
78985;SDS011;68384;55.750;48.746;2023-03-24T03:24:12;14.45;;;7.90;;
78985;SDS011;68384;55.750;48.746;2023-03-24T03:25:28;11.43;;;7.35;;
78985;SDS011;68384;55.750;48.746;2023-03-24T03:26:35;10.80;;;7.00;;
78985;SDS011;68384;55.750;48.746;2023-03-24T03:27:41;12.35;;;7.72;;
78985;SDS011;68384;55.750;48.746;2023-03-24T03:28:49;13.43;;;8.02;;
78985;SDS011;68384;55.750;48.746;2023-03-24T03:29:59;13.07;;;7.65;;
78985;SDS011;68384;55.750;48.746;2023-03-24T03:31:09;10.75;;;7.00;;
78985;SDS011;68384;55.750;48.746;2023-03-24T03:32:17;12.15;;;7.07;;
78985;SDS011;68384;55.750;48.746;2023-03-24T03:33:28;11.00;;;7.00;;
78985;SDS011;68384;55.750;48.746;2023-03-24T03:34:36;13.18;;;7.90;;
78985;SDS011;68384;55.750;48.746;2023-03-24T03:35:45;13.45;;;7.72;;
78985;SDS011;68384;55.750;48.746;2023-03-24T03:36:53;11.45;;;7.38;;
78985;SDS011;68384;55.750;48.746;2023-03-24T03:38:02;12.13;;;7.65;;
78985;SDS011;68384;55.750;48.746;2023-03-24T03:39:15;10.70;;;6.80;;
78985;SDS011;68384;55.750;48.746;2023-03-24T03:41:32;11.98;;;7.43;;
78985;SDS011;68384;55.750;48.746;2023-03-24T03:43:39;14.80;;;7.18;;
78985;SDS011;68384;55.750;48.746;2023-03-24T03:44:43;12.50;;;6.40;;
78985;SDS011;68384;55.750;48.746;2023-03-24T03:45:47;10.95;;;6.97;;
78985;SDS011;68384;55.750;48.746;2023-03-24T03:46:51;11.07;;;7.38;;
78985;SDS011;68384;55.750;48.746;2023-03-24T03:47:54;11.65;;;7.00;;
78985;SDS011;68384;55.750;48.746;2023-03-24T03:50:00;12.98;;;6.88;;
78985;SDS011;68384;55.750;48.746;2023-03-24T03:51:04;11.85;;;6.68;;
78985;SDS011;68384;55.750;48.746;2023-03-24T03:52:14;10.52;;;6.43;;
78985;SDS011;68384;55.750;48.746;2023-03-24T03:53:19;13.90;;;6.75;;
78985;SDS011;68384;55.750;48.746;2023-03-24T03:54:27;9.82;;;6.85;;
78985;SDS011;68384;55.750;48.746;2023-03-24T03:55:34;10.75;;;7.30;;
78985;SDS011;68384;55.750;48.746;2023-03-24T03:56:37;12.00;;;7.40;;
78985;SDS011;68384;55.750;48.746;2023-03-24T03:57:42;10.25;;;6.85;;
78985;SDS011;68384;55.750;48.746;2023-03-24T03:58:46;13.07;;;7.50;;
78985;SDS011;68384;55.750;48.746;2023-03-24T03:59:50;12.02;;;7.97;;
78985;SDS011;68384;55.750;48.746;2023-03-24T04:00:53;11.68;;;6.88;;
78985;SDS011;68384;55.750;48.746;2023-03-24T04:01:57;9.90;;;6.30;;
78985;SDS011;68384;55.750;48.746;2023-03-24T04:03:07;12.20;;;7.55;;
78985;SDS011;68384;55.750;48.746;2023-03-24T04:06:08;11.05;;;6.88;;
78985;SDS011;68384;55.750;48.746;2023-03-24T04:07:22;10.93;;;6.60;;
78985;SDS011;68384;55.750;48.746;2023-03-24T04:08:34;11.13;;;6.50;;
78985;SDS011;68384;55.750;48.746;2023-03-24T04:09:49;11.68;;;7.43;;
78985;SDS011;68384;55.750;48.746;2023-03-24T04:11:10;12.10;;;7.55;;
78985;SDS011;68384;55.750;48.746;2023-03-24T04:12:48;13.88;;;7.97;;
78985;SDS011;68384;55.750;48.746;2023-03-24T04:14:15;12.40;;;7.05;;
78985;SDS011;68384;55.750;48.746;2023-03-24T04:15:36;11.73;;;7.82;;
78985;SDS011;68384;55.750;48.746;2023-03-24T04:16:50;11.15;;;7.18;;
78985;SDS011;68384;55.750;48.746;2023-03-24T04:19:44;13.27;;;7.25;;
78985;SDS011;68384;55.750;48.746;2023-03-24T04:22:24;12.82;;;7.60;;
78985;SDS011;68384;55.750;48.746;2023-03-24T04:23:41;14.45;;;7.43;;
78985;SDS011;68384;55.750;48.746;2023-03-24T04:24:50;11.65;;;6.93;;
78985;SDS011;68384;55.750;48.746;2023-03-24T04:26:00;11.13;;;6.90;;
78985;SDS011;68384;55.750;48.746;2023-03-24T04:27:14;11.90;;;6.57;;
78985;SDS011;68384;55.750;48.746;2023-03-24T04:28:29;11.23;;;6.90;;
78985;SDS011;68384;55.750;48.746;2023-03-24T04:29:42;10.60;;;6.43;;
78985;SDS011;68384;55.750;48.746;2023-03-24T04:30:55;14.98;;;7.78;;
78985;SDS011;68384;55.750;48.746;2023-03-24T04:32:05;14.48;;;7.57;;
78985;SDS011;68384;55.750;48.746;2023-03-24T04:33:16;10.38;;;6.93;;
78985;SDS011;68384;55.750;48.746;2023-03-24T04:34:24;12.80;;;7.22;;
78985;SDS011;68384;55.750;48.746;2023-03-24T04:35:32;14.63;;;7.55;;
78985;SDS011;68384;55.750;48.746;2023-03-24T04:36:43;12.15;;;7.18;;
78985;SDS011;68384;55.750;48.746;2023-03-24T04:37:51;10.65;;;7.00;;
78985;SDS011;68384;55.750;48.746;2023-03-24T04:38:56;10.88;;;7.22;;
78985;SDS011;68384;55.750;48.746;2023-03-24T04:40:05;13.20;;;7.85;;
78985;SDS011;68384;55.750;48.746;2023-03-24T04:41:11;13.45;;;7.57;;
78985;SDS011;68384;55.750;48.746;2023-03-24T04:42:19;11.52;;;7.55;;
78985;SDS011;68384;55.750;48.746;2023-03-24T04:43:25;10.60;;;7.25;;
78985;SDS011;68384;55.750;48.746;2023-03-24T04:44:37;11.52;;;7.63;;
78985;SDS011;68384;55.750;48.746;2023-03-24T04:45:44;11.20;;;7.25;;
78985;SDS011;68384;55.750;48.746;2023-03-24T04:46:51;10.57;;;6.93;;
78985;SDS011;68384;55.750;48.746;2023-03-24T04:47:58;14.80;;;7.32;;
78985;SDS011;68384;55.750;48.746;2023-03-24T04:49:05;11.45;;;7.45;;
78985;SDS011;68384;55.750;48.746;2023-03-24T04:50:09;12.05;;;7.05;;
78985;SDS011;68384;55.750;48.746;2023-03-24T04:51:14;11.02;;;7.80;;
78985;SDS011;68384;55.750;48.746;2023-03-24T04:52:17;10.82;;;7.47;;
78985;SDS011;68384;55.750;48.746;2023-03-24T04:53:21;11.35;;;7.40;;
78985;SDS011;68384;55.750;48.746;2023-03-24T04:54:24;12.75;;;7.30;;
78985;SDS011;68384;55.750;48.746;2023-03-24T04:55:49;12.00;;;6.90;;
78985;SDS011;68384;55.750;48.746;2023-03-24T04:56:58;12.27;;;7.43;;
78985;SDS011;68384;55.750;48.746;2023-03-24T04:58:03;10.82;;;6.95;;
78985;SDS011;68384;55.750;48.746;2023-03-24T04:59:05;10.18;;;7.18;;
78985;SDS011;68384;55.750;48.746;2023-03-24T05:01:16;11.90;;;7.05;;
78985;SDS011;68384;55.750;48.746;2023-03-24T05:02:22;11.20;;;6.72;;
78985;SDS011;68384;55.750;48.746;2023-03-24T05:03:25;13.73;;;7.70;;
78985;SDS011;68384;55.750;48.746;2023-03-24T05:04:28;14.55;;;8.32;;
78985;SDS011;68384;55.750;48.746;2023-03-24T05:06:34;10.07;;;6.88;;
78985;SDS011;68384;55.750;48.746;2023-03-24T05:07:38;12.57;;;7.63;;
78985;SDS011;68384;55.750;48.746;2023-03-24T05:08:40;12.35;;;7.70;;
78985;SDS011;68384;55.750;48.746;2023-03-24T05:09:44;14.68;;;7.93;;
78985;SDS011;68384;55.750;48.746;2023-03-24T05:10:47;12.82;;;7.43;;
78985;SDS011;68384;55.750;48.746;2023-03-24T05:11:50;10.35;;;7.65;;
78985;SDS011;68384;55.750;48.746;2023-03-24T05:12:54;14.88;;;7.70;;
78985;SDS011;68384;55.750;48.746;2023-03-24T05:13:57;14.23;;;8.38;;
78985;SDS011;68384;55.750;48.746;2023-03-24T05:15:00;13.32;;;7.95;;
78985;SDS011;68384;55.750;48.746;2023-03-24T05:16:04;12.15;;;7.22;;
78985;SDS011;68384;55.750;48.746;2023-03-24T05:17:10;10.35;;;7.55;;
78985;SDS011;68384;55.750;48.746;2023-03-24T05:18:13;12.38;;;7.40;;
78985;SDS011;68384;55.750;48.746;2023-03-24T05:19:17;11.15;;;7.55;;
78985;SDS011;68384;55.750;48.746;2023-03-24T05:21:22;10.95;;;6.85;;
78985;SDS011;68384;55.750;48.746;2023-03-24T05:22:26;12.80;;;7.88;;
78985;SDS011;68384;55.750;48.746;2023-03-24T05:23:29;10.30;;;7.35;;
78985;SDS011;68384;55.750;48.746;2023-03-24T05:24:32;12.55;;;7.88;;
78985;SDS011;68384;55.750;48.746;2023-03-24T05:25:35;12.60;;;8.10;;
78985;SDS011;68384;55.750;48.746;2023-03-24T05:26:39;12.80;;;8.73;;
78985;SDS011;68384;55.750;48.746;2023-03-24T05:27:41;11.98;;;7.13;;
78985;SDS011;68384;55.750;48.746;2023-03-24T05:28:45;12.93;;;7.25;;
78985;SDS011;68384;55.750;48.746;2023-03-24T05:29:48;12.25;;;8.07;;
78985;SDS011;68384;55.750;48.746;2023-03-24T05:30:52;13.63;;;8.02;;
78985;SDS011;68384;55.750;48.746;2023-03-24T05:31:54;13.30;;;8.18;;
78985;SDS011;68384;55.750;48.746;2023-03-24T05:33:00;13.60;;;8.15;;
78985;SDS011;68384;55.750;48.746;2023-03-24T05:34:02;11.27;;;7.30;;
78985;SDS011;68384;55.750;48.746;2023-03-24T05:35:06;17.25;;;8.95;;
78985;SDS011;68384;55.750;48.746;2023-03-24T05:36:09;17.33;;;7.80;;
78985;SDS011;68384;55.750;48.746;2023-03-24T05:37:13;10.95;;;7.00;;
78985;SDS011;68384;55.750;48.746;2023-03-24T05:38:18;12.23;;;7.68;;
78985;SDS011;68384;55.750;48.746;2023-03-24T05:40:24;14.27;;;8.10;;
78985;SDS011;68384;55.750;48.746;2023-03-24T05:42:30;14.40;;;8.50;;
78985;SDS011;68384;55.750;48.746;2023-03-24T05:43:33;13.23;;;8.40;;
78985;SDS011;68384;55.750;48.746;2023-03-24T05:44:36;14.43;;;8.38;;
78985;SDS011;68384;55.750;48.746;2023-03-24T05:45:39;17.08;;;9.00;;
78985;SDS011;68384;55.750;48.746;2023-03-24T05:46:42;14.85;;;9.70;;
78985;SDS011;68384;55.750;48.746;2023-03-24T05:48:50;18.20;;;8.43;;
78985;SDS011;68384;55.750;48.746;2023-03-24T05:49:54;12.73;;;8.02;;
78985;SDS011;68384;55.750;48.746;2023-03-24T05:50:56;13.32;;;9.27;;
78985;SDS011;68384;55.750;48.746;2023-03-24T05:52:00;14.25;;;7.90;;
78985;SDS011;68384;55.750;48.746;2023-03-24T05:53:02;13.10;;;8.32;;
78985;SDS011;68384;55.750;48.746;2023-03-24T05:54:06;11.98;;;8.20;;
78985;SDS011;68384;55.750;48.746;2023-03-24T05:55:09;13.43;;;7.22;;
78985;SDS011;68384;55.750;48.746;2023-03-24T05:57:15;13.57;;;7.75;;
78985;SDS011;68384;55.750;48.746;2023-03-24T05:58:18;18.33;;;7.70;;
78985;SDS011;68384;55.750;48.746;2023-03-24T05:59:22;14.48;;;7.90;;
78985;SDS011;68384;55.750;48.746;2023-03-24T06:01:27;13.02;;;7.75;;
78985;SDS011;68384;55.750;48.746;2023-03-24T06:02:31;16.77;;;7.70;;
78985;SDS011;68384;55.750;48.746;2023-03-24T06:03:34;13.65;;;8.50;;
78985;SDS011;68384;55.750;48.746;2023-03-24T06:04:41;12.88;;;8.13;;
78985;SDS011;68384;55.750;48.746;2023-03-24T06:05:47;13.27;;;8.38;;
78985;SDS011;68384;55.750;48.746;2023-03-24T06:06:51;12.32;;;7.50;;
78985;SDS011;68384;55.750;48.746;2023-03-24T06:07:57;14.50;;;7.72;;
78985;SDS011;68384;55.750;48.746;2023-03-24T06:09:02;12.70;;;8.95;;
78985;SDS011;68384;55.750;48.746;2023-03-24T06:10:05;11.77;;;8.05;;
78985;SDS011;68384;55.750;48.746;2023-03-24T06:11:12;12.57;;;8.48;;
78985;SDS011;68384;55.750;48.746;2023-03-24T06:12:15;11.70;;;8.20;;
78985;SDS011;68384;55.750;48.746;2023-03-24T06:13:19;11.55;;;8.23;;
78985;SDS011;68384;55.750;48.746;2023-03-24T06:14:21;12.18;;;8.25;;
78985;SDS011;68384;55.750;48.746;2023-03-24T06:15:25;13.57;;;8.38;;
78985;SDS011;68384;55.750;48.746;2023-03-24T06:16:28;12.30;;;8.80;;
78985;SDS011;68384;55.750;48.746;2023-03-24T06:17:34;12.27;;;8.50;;
78985;SDS011;68384;55.750;48.746;2023-03-24T06:18:38;15.93;;;8.38;;
78985;SDS011;68384;55.750;48.746;2023-03-24T06:19:44;14.30;;;9.45;;
78985;SDS011;68384;55.750;48.746;2023-03-24T06:20:50;13.20;;;8.63;;
78985;SDS011;68384;55.750;48.746;2023-03-24T06:21:57;12.35;;;8.30;;
78985;SDS011;68384;55.750;48.746;2023-03-24T06:23:01;15.32;;;9.30;;
78985;SDS011;68384;55.750;48.746;2023-03-24T06:24:05;13.93;;;8.40;;
78985;SDS011;68384;55.750;48.746;2023-03-24T06:25:08;19.98;;;8.63;;
78985;SDS011;68384;55.750;48.746;2023-03-24T06:26:12;13.77;;;8.35;;
78985;SDS011;68384;55.750;48.746;2023-03-24T06:27:17;11.75;;;8.48;;
78985;SDS011;68384;55.750;48.746;2023-03-24T06:28:22;14.63;;;8.75;;
78985;SDS011;68384;55.750;48.746;2023-03-24T06:29:30;13.80;;;8.50;;
78985;SDS011;68384;55.750;48.746;2023-03-24T06:30:33;16.42;;;8.25;;
78985;SDS011;68384;55.750;48.746;2023-03-24T06:31:37;13.90;;;8.48;;
78985;SDS011;68384;55.750;48.746;2023-03-24T06:32:40;11.50;;;8.98;;
78985;SDS011;68384;55.750;48.746;2023-03-24T06:33:47;13.32;;;8.88;;
78985;SDS011;68384;55.750;48.746;2023-03-24T06:34:53;11.45;;;7.82;;
78985;SDS011;68384;55.750;48.746;2023-03-24T06:35:56;12.75;;;8.35;;
78985;SDS011;68384;55.750;48.746;2023-03-24T06:36:59;12.15;;;7.90;;
78985;SDS011;68384;55.750;48.746;2023-03-24T06:38:02;12.88;;;7.70;;
78985;SDS011;68384;55.750;48.746;2023-03-24T06:40:08;14.45;;;8.50;;
78985;SDS011;68384;55.750;48.746;2023-03-24T06:41:15;12.48;;;7.85;;
78985;SDS011;68384;55.750;48.746;2023-03-24T06:42:17;13.07;;;8.05;;
78985;SDS011;68384;55.750;48.746;2023-03-24T06:43:21;12.18;;;8.02;;
78985;SDS011;68384;55.750;48.746;2023-03-24T06:44:24;11.77;;;7.93;;
78985;SDS011;68384;55.750;48.746;2023-03-24T06:45:28;13.13;;;9.18;;
78985;SDS011;68384;55.750;48.746;2023-03-24T06:46:31;11.90;;;7.78;;
78985;SDS011;68384;55.750;48.746;2023-03-24T06:47:34;13.43;;;8.00;;
78985;SDS011;68384;55.750;48.746;2023-03-24T06:48:38;14.43;;;8.95;;
78985;SDS011;68384;55.750;48.746;2023-03-24T06:49:41;13.73;;;8.50;;
78985;SDS011;68384;55.750;48.746;2023-03-24T06:50:46;15.57;;;8.45;;
78985;SDS011;68384;55.750;48.746;2023-03-24T06:51:48;13.43;;;8.43;;
78985;SDS011;68384;55.750;48.746;2023-03-24T06:52:52;12.93;;;8.48;;
78985;SDS011;68384;55.750;48.746;2023-03-24T06:53:54;12.45;;;7.88;;
78985;SDS011;68384;55.750;48.746;2023-03-24T06:54:58;12.23;;;8.68;;
78985;SDS011;68384;55.750;48.746;2023-03-24T06:56:01;14.02;;;8.95;;
78985;SDS011;68384;55.750;48.746;2023-03-24T06:57:04;14.68;;;9.07;;
78985;SDS011;68384;55.750;48.746;2023-03-24T06:58:07;12.88;;;8.48;;
78985;SDS011;68384;55.750;48.746;2023-03-24T06:59:11;15.40;;;8.88;;
78985;SDS011;68384;55.750;48.746;2023-03-24T07:00:14;12.38;;;8.20;;
78985;SDS011;68384;55.750;48.746;2023-03-24T07:01:18;15.65;;;8.52;;
78985;SDS011;68384;55.750;48.746;2023-03-24T07:02:21;13.30;;;8.65;;
78985;SDS011;68384;55.750;48.746;2023-03-24T07:03:25;12.73;;;9.02;;
78985;SDS011;68384;55.750;48.746;2023-03-24T07:05:37;14.68;;;9.38;;